createdAt,value
2023-04-01T06:20:27.945Z,9.48
2023-04-01T06:30:27.746Z,9.12
2023-04-01T06:40:27.940Z,8.63
2023-04-01T06:50:27.887Z,9.76
2023-04-01T07:00:27.982Z,11.42
2023-04-01T07:10:28.028Z,10.24
2023-04-01T07:20:27.900Z,11.72
2023-04-01T07:30:27.936Z,12.54
2023-04-01T07:40:27.798Z,13.86
2023-04-01T07:50:27.985Z,12.97
2023-04-01T08:00:28.066Z,13.97
2023-04-01T08:10:28.009Z,13.72
2023-04-01T08:20:27.861Z,13.82
2023-04-01T08:30:28.024Z,13.15
2023-04-01T08:40:28.010Z,11.39
2023-04-01T08:50:28.161Z,0.00
2023-04-01T09:00:28.327Z,0.00
2023-04-01T09:10:28.196Z,0.00
2023-04-01T09:20:28.264Z,0.00
2023-04-01T09:30:28.124Z,0.00
2023-04-01T09:40:28.204Z,0.00
2023-04-01T09:50:28.256Z,0.00
2023-04-01T10:00:28.117Z,0.00
2023-04-01T10:10:28.293Z,0.00
2023-04-01T10:20:28.070Z,0.00
2023-04-01T10:30:28.138Z,0.00
2023-04-01T10:40:28.176Z,0.00
2023-04-01T10:50:28.241Z,0.00
2023-04-01T11:00:28.300Z,0.00
2023-04-01T11:10:29.332Z,0.00
2023-04-01T11:20:28.238Z,4.95
2023-04-01T11:30:28.030Z,8.57
2023-04-01T11:40:28.363Z,8.78
2023-04-01T11:50:28.157Z,7.70
2023-04-01T12:00:28.307Z,1.72
2023-04-01T12:10:28.360Z,0.00
2023-04-01T12:20:28.314Z,0.00
2023-04-01T12:30:28.381Z,6.25
2023-04-01T12:40:28.485Z,11.83
2023-04-01T12:50:28.204Z,13.99
2023-04-01T13:00:28.407Z,14.76
2023-04-01T13:10:28.446Z,13.98
2023-04-01T13:20:28.323Z,20.72
2023-04-01T13:30:28.471Z,26.56
2023-04-01T13:40:28.548Z,30.21
2023-04-01T13:50:28.404Z,31.76
2023-04-01T14:00:28.436Z,32.77
2023-04-01T14:10:28.174Z,30.64
2023-04-01T14:20:28.190Z,23.59
2023-04-01T14:30:28.353Z,29.16
2023-04-01T14:40:28.325Z,32.15
2023-04-01T14:50:28.501Z,28.00
2023-04-01T15:00:28.241Z,31.79
2023-04-01T15:10:28.313Z,30.66
2023-04-01T15:20:28.239Z,32.30
2023-04-01T15:30:28.441Z,28.58
2023-04-01T15:40:28.404Z,29.13
2023-04-01T15:50:28.381Z,26.54
2023-04-01T16:00:28.545Z,34.69
2023-04-01T16:10:28.499Z,30.35
2023-04-01T16:20:28.249Z,33.92
2023-04-01T16:30:28.530Z,30.90
2023-04-01T16:40:28.480Z,27.75
2023-04-01T16:50:29.001Z,37.38
2023-04-01T17:00:28.453Z,31.21
2023-04-01T17:10:28.584Z,32.62
2023-04-01T17:20:28.552Z,37.77
2023-04-01T17:30:28.440Z,35.06
2023-04-01T17:40:28.474Z,27.70
2023-04-01T17:50:28.440Z,33.85
2023-04-01T18:00:32.387Z,35.06
2023-04-01T18:10:28.679Z,31.54
2023-04-01T18:20:28.425Z,27.38
2023-04-01T18:30:28.637Z,32.04
2023-04-01T18:40:28.470Z,29.95
2023-04-01T18:50:28.630Z,26.29
2023-04-01T19:00:28.687Z,32.78
2023-04-01T19:10:28.446Z,32.48
2023-04-01T19:20:28.610Z,34.25
